Рассадник сумчатой русофобии - AntonTsAU (antontsau) wrote,
Рассадник сумчатой русофобии - AntonTsAU
antontsau

Categories:

Дождик, дождик, лей сильней!

SPECI YSBK 091830Z AUTO 00000KT //// // OVC003 21/20 Q1007 RMK
RF00.0/159.0

то есть за чуть меньше суток вылилось 16 сантиметров дождя. Треть того, что случилось за весь прошлый год.

Хорошо что в воскресенье, все сидели по домам и не высовывались, а в рабочий день это был бы ппц на уровне снегопада в Маськве, с мертвым стойбищем целый день.
Tags: Сидней, природное
Subscribe

  • Post a new comment

    Error

    Anonymous comments are disabled in this journal

    default userpic

    Your reply will be screened

    Your IP address will be recorded 

  • 17 comments